Time;durP1;ratioP1;P1;durP2;ratioP2;P2;SDS_P1;SDS_P2;PMS_P1;PMS_P2;Temp;Humidity;BMP_temperature;BMP_pressure;BME280_temperature;BME280_humidity;BME280_pressure;Samples;Min_cycle;Max_cycle;Signal;HPM_P1;HPM_P2
2019/04/17 00:02:40;;;;;;;4.9;2.8;;;;;;;9.07;67.02344;941.2324;;;;
2019/04/17 00:07:32;;;;;;;5.8;3.1;;;;;;;9.18;66.28711;941.1938;;;;
2019/04/17 00:09:52;;;;;;;6.6;2.8;;;;;;;9.19;66.24219;941.1805;;;;
2019/04/17 00:12:17;;;;;;;4.9;2.9;;;;;;;9.3;65.48535;941.1671;;;;
2019/04/17 00:14:47;;;;;;;5.5;3;;;;;;;9.37;65.95117;941.1611;;;;
2019/04/17 00:17:12;;;;;;;4.8;3;;;;;;;9.34;65.32227;941.1758;;;;
2019/04/17 00:19:43;;;;;;;3.9;2.9;;;;;;;9.32;65.2627;941.1523;;;;
2019/04/17 00:22:08;;;;;;;4.4;3.1;;;;;;;9.23;65.66992;941.1174;;;;
2019/04/17 00:24:42;;;;;;;6.8;3.2;;;;;;;9.1;66.28809;941.2003;;;;
2019/04/17 00:27:08;;;;;;;4;3.1;;;;;;;9.08;65.88574;941.215;;;;
2019/04/17 00:29:40;;;;;;;6.2;3.1;;;;;;;8.98;66.34766;941.2611;;;;
2019/04/17 00:32:06;;;;;;;4.8;2.9;;;;;;;8.81;66.28613;941.2668;;;;
2019/04/17 00:34:39;;;;;;;4.8;2.9;;;;;;;8.8;66.66113;941.2381;;;;
2019/04/17 00:37:42;;;;;;;4.1;3.2;;;;;;;8.72;67.18457;941.2444;;;;
2019/04/17 00:39:53;;;;;;;5.7;3.1;;;;;;;8.77;67.08789;941.3169;;;;
2019/04/17 00:42:19;;;;;;;3.9;3;;;;;;;8.79;66.78516;941.2681;;;;
2019/04/17 00:44:40;;;;;;;4.7;3;;;;;;;8.69;66.99707;941.3486;;;;
2019/04/17 00:47:07;;;;;;;4.9;2.9;;;;;;;8.66;67.18555;941.3043;;;;
2019/04/17 00:49:32;;;;;;;3.8;2.9;;;;;;;8.8;66.86621;941.3183;;;;
2019/04/17 00:52:10;;;;;;;4;3.2;;;;;;;8.76;67.30371;941.351;;;;
2019/04/17 00:55:04;;;;;;;4.5;3.1;;;;;;;8.88;66.66211;941.3417;;;;
2019/04/17 00:57:41;;;;;;;3.9;2.9;;;;;;;8.75;67.22168;941.3354;;;;
2019/04/17 01:05:53;;;;;;;4.6;2.6;;;;;;;8.89;66.6416;941.3832;;;;
2019/04/17 01:08:21;;;;;;;5.9;2.8;;;;;;;8.96;66.17285;941.3688;;;;
2019/04/17 01:10:55;;;;;;;3.2;2.5;;;;;;;8.92;66.27148;941.3505;;;;
2019/04/17 01:13:34;;;;;;;4.8;2.8;;;;;;;8.86;66.98828;941.373;;;;
2019/04/17 01:16:11;;;;;;;9.1;3.4;;;;;;;8.86;67.0332;941.4199;;;;
2019/04/17 01:18:52;;;;;;;4.2;2.6;;;;;;;8.86;66.83984;941.4111;;;;
2019/04/17 01:21:27;;;;;;;13.1;3.3;;;;;;;8.65;67.2627;941.3731;;;;
2019/04/17 01:24:07;;;;;;;4.9;2.6;;;;;;;8.71;67.04492;941.3513;;;;
2019/04/17 01:26:34;;;;;;;7.9;3.1;;;;;;;8.76;67.15625;941.2961;;;;
2019/04/17 01:29:03;;;;;;;3.9;2.9;;;;;;;8.85;67.23828;941.3864;;;;
2019/04/17 01:31:33;;;;;;;2.9;2.6;;;;;;;8.54;67.4502;941.4117;;;;
2019/04/17 01:33:59;;;;;;;6.2;2.8;;;;;;;8.53;67.51855;941.3949;;;;
2019/04/17 01:36:24;;;;;;;4.3;2.9;;;;;;;8.56;67.88477;941.3931;;;;
2019/04/17 01:41:43;;;;;;;10.3;3.5;;;;;;;8.59;67.93652;941.4367;;;;
2019/04/17 01:44:20;;;;;;;4.3;3.4;;;;;;;8.59;68.00488;941.3652;;;;
2019/04/17 01:46:56;;;;;;;4.4;2.9;;;;;;;8.77;68.03125;941.3803;;;;
2019/04/17 01:49:21;;;;;;;4.4;3;;;;;;;8.92;67.625;941.3973;;;;
2019/04/17 01:51:38;;;;;;;3.8;2.8;;;;;;;8.97;67.04004;941.3808;;;;
2019/04/17 01:54:03;;;;;;;3.8;2.9;;;;;;;8.88;67.20801;941.4092;;;;
2019/04/17 01:56:51;;;;;;;4;3;;;;;;;8.9;67.29102;941.3699;;;;
2019/04/17 01:59:37;;;;;;;3.5;2.9;;;;;;;8.96;67.12891;941.445;;;;
2019/04/17 02:03:30;;;;;;;4.8;3.1;;;;;;;8.94;67.05859;941.3954;;;;
2019/04/17 02:04:19;;;;;;;5.3;3.3;;;;;;;8.86;67.36328;941.3817;;;;
2019/04/17 02:12:05;;;;;;;4.6;2.8;;;;;;;8.58;68.40039;941.4039;;;;
2019/04/17 02:21:38;;;;;;;6.1;3.4;;;;;;;8.89;67.64063;941.3792;;;;
2019/04/17 02:24:03;;;;;;;3.8;3.3;;;;;;;8.79;68.24219;941.3484;;;;
2019/04/17 02:26:29;;;;;;;5.7;3.6;;;;;;;8.74;68.7793;941.3314;;;;
2019/04/17 02:28:54;;;;;;;5.4;3.2;;;;;;;8.85;68.70508;941.3697;;;;
2019/04/17 02:31:20;;;;;;;6.7;3.5;;;;;;;8.96;68.42578;941.3433;;;;
2019/04/17 02:33:46;;;;;;;6.4;3.4;;;;;;;9.08;67.4668;941.2999;;;;
2019/04/17 02:36:19;;;;;;;4.1;3.4;;;;;;;9.22;66.75977;941.3094;;;;
2019/04/17 02:38:59;;;;;;;4.9;3.6;;;;;;;9.13;67.58887;941.3416;;;;
2019/04/17 02:41:20;;;;;;;5.5;3.5;;;;;;;9.18;66.82227;941.3805;;;;
2019/04/17 02:46:51;;;;;;;5;3.6;;;;;;;9;67.9209;941.4037;;;;
2019/04/17 02:49:19;;;;;;;5.6;3.6;;;;;;;8.81;68.06152;941.4363;;;;
2019/04/17 02:51:50;;;;;;;4.4;3.4;;;;;;;8.65;68.76367;941.428;;;;
2019/04/17 02:54:13;;;;;;;6.4;3.9;;;;;;;8.66;68.95898;941.3845;;;;
2019/04/17 02:56:55;;;;;;;6.6;3.7;;;;;;;8.69;69.12305;941.4208;;;;
2019/04/17 02:59:31;;;;;;;7.1;3.4;;;;;;;8.36;70.07031;941.4424;;;;
2019/04/17 03:01:56;;;;;;;5.7;3.4;;;;;;;8.41;70.08789;941.4561;;;;
2019/04/17 03:04:22;;;;;;;4;3.4;;;;;;;8.51;69.53906;941.4263;;;;
2019/04/17 03:07:00;;;;;;;7.6;3.3;;;;;;;8.62;69.12305;941.3883;;;;
2019/04/17 03:09:30;;;;;;;13.3;4.2;;;;;;;8.62;68.98633;941.3456;;;;
2019/04/17 03:12:10;;;;;;;8;4;;;;;;;8.43;69.64941;941.4077;;;;
2019/04/17 03:14:35;;;;;;;9;3.9;;;;;;;8.44;69.62891;941.3858;;;;
2019/04/17 03:17:00;;;;;;;6.3;3.6;;;;;;;8.4;69.87207;941.4139;;;;
2019/04/17 03:19:26;;;;;;;6;4;;;;;;;8.41;70.2373;941.3795;;;;
2019/04/17 03:21:53;;;;;;;9.5;4.1;;;;;;;8.65;69.83203;941.3644;;;;
2019/04/17 03:24:20;;;;;;;9;4.2;;;;;;;8.67;69.38184;941.291;;;;
2019/04/17 03:26:46;;;;;;;10.9;5.1;;;;;;;8.66;69.03711;941.347;;;;
2019/04/17 03:29:18;;;;;;;11.4;5.6;;;;;;;8.59;69.0957;941.3525;;;;
2019/04/17 03:31:51;;;;;;;10.1;5;;;;;;;8.73;68.60547;941.29;;;;
2019/04/17 03:34:09;;;;;;;9.7;5.2;;;;;;;8.73;68.78809;941.3033;;;;
2019/04/17 03:36:34;;;;;;;9.5;5.4;;;;;;;8.8;68.31055;941.3097;;;;
2019/04/17 03:39:10;;;;;;;8.5;4.8;;;;;;;8.7;68.80566;941.3011;;;;
2019/04/17 03:41:38;;;;;;;14.8;7.9;;;;;;;8.32;70.50586;941.3063;;;;
2019/04/17 03:44:13;;;;;;;10.3;6.2;;;;;;;8.08;71.60156;941.3718;;;;
2019/04/17 03:46:43;;;;;;;7.4;4.8;;;;;;;8.15;71.40918;941.3409;;;;
2019/04/17 03:49:39;;;;;;;9.1;4.9;;;;;;;8.23;71.22949;941.2756;;;;
2019/04/17 03:52:23;;;;;;;10.5;5.2;;;;;;;8.23;71.20801;941.313;;;;
2019/04/17 03:54:42;;;;;;;9.5;4.6;;;;;;;8.33;70.68945;941.4025;;;;
2019/04/17 03:59:51;;;;;;;10.8;4.6;;;;;;;8.26;70.98438;941.4214;;;;
2019/04/17 04:03:16;;;;;;;8.2;4.5;;;;;;;8.27;70.72461;941.344;;;;
2019/04/17 04:05:46;;;;;;;6.1;4.2;;;;;;;8.42;70.53418;941.4852;;;;
2019/04/17 04:08:14;;;;;;;7.7;4.4;;;;;;;8.61;70.08594;941.3933;;;;
2019/04/17 04:11:02;;;;;;;5.1;4.2;;;;;;;8.51;69.75293;941.4603;;;;
2019/04/17 04:18:37;;;;;;;7;4.5;;;;;;;8.54;69.75781;941.437;;;;
2019/04/17 04:28:09;;;;;;;10.7;4.5;;;;;;;8.38;70.5957;941.5848;;;;
2019/04/17 04:35:44;;;;;;;6.5;4.6;;;;;;;8.27;70.95117;941.5938;;;;
2019/04/17 04:38:09;;;;;;;12.7;4.7;;;;;;;8.33;70.84668;941.623;;;;
2019/04/17 04:43:13;;;;;;;8.3;4.9;;;;;;;8.13;71.53125;941.6934;;;;
2019/04/17 04:48:30;;;;;;;7.8;4.8;;;;;;;8.29;71.0459;941.7489;;;;
2019/04/17 04:50:37;;;;;;;8.3;4;;;;;;;8.36;70.7168;941.7772;;;;
2019/04/17 04:53:10;;;;;;;12;4.5;;;;;;;8.49;70.2959;941.7495;;;;
2019/04/17 04:55:35;;;;;;;7.7;3.9;;;;;;;8.42;70;941.7812;;;;
2019/04/17 04:58:06;;;;;;;15.3;4.6;;;;;;;8.47;70.08691;941.7896;;;;
2019/04/17 05:00:31;;;;;;;7.2;3.8;;;;;;;8.21;70.93164;941.8393;;;;
2019/04/17 05:02:56;;;;;;;9;4.3;;;;;;;8.05;71.56445;941.8644;;;;
2019/04/17 05:06:00;;;;;;;8.5;4.5;;;;;;;7.97;72.13965;941.9763;;;;
2019/04/17 05:11:15;;;;;;;10.6;4.2;;;;;;;8.23;71.34277;941.9229;;;;
2019/04/17 05:13:17;;;;;;;8.3;4.3;;;;;;;8.28;70.69336;941.9607;;;;
2019/04/17 05:15:54;;;;;;;6.4;3.9;;;;;;;8.58;70.38965;941.95;;;;
2019/04/17 05:18:09;;;;;;;6.9;4.3;;;;;;;8.47;69.88379;941.954;;;;
2019/04/17 05:20:34;;;;;;;9.3;4;;;;;;;8.49;69.56836;942.0036;;;;
2019/04/17 05:23:01;;;;;;;13.3;4.4;;;;;;;8.26;70.72266;941.9331;;;;
2019/04/17 05:26:02;;;;;;;11.5;4.8;;;;;;;8.24;70.33398;941.9344;;;;
2019/04/17 05:28:06;;;;;;;20.7;10.7;;;;;;;8.35;70.0332;941.9642;;;;
2019/04/17 05:33:12;;;;;;;15.5;7.5;;;;;;;8.6;70.31348;941.9614;;;;
2019/04/17 05:35:25;;;;;;;10.9;5.1;;;;;;;9.12;68.65625;941.9744;;;;
2019/04/17 05:38:01;;;;;;;10.5;4.7;;;;;;;9.99;65.93359;941.8586;;;;
2019/04/17 05:40:37;;;;;;;9.8;4.6;;;;;;;10.57;62.79004;941.9017;;;;
2019/04/17 05:43:04;;;;;;;10;5.5;;;;;;;11.54;59.0625;941.9256;;;;
2019/04/17 05:45:32;;;;;;;12.7;5.3;;;;;;;12.05;56.64551;942.1005;;;;
2019/04/17 05:47:54;;;;;;;8.5;4.8;;;;;;;12.52;55.1709;942.0383;;;;
2019/04/17 05:50:20;;;;;;;6.8;3.9;;;;;;;12.91;52.96973;942.0648;;;;
2019/04/17 05:53:04;;;;;;;7.6;4;;;;;;;12.84;53.57031;942.0036;;;;
2019/04/17 05:55:31;;;;;;;10.5;4.3;;;;;;;12.74;53.21387;942.1025;;;;
2019/04/17 05:58:15;;;;;;;6.3;4.2;;;;;;;12.48;54.43164;942.0507;;;;
2019/04/17 06:00:46;;;;;;;6;4;;;;;;;13.63;50.18359;941.9772;;;;
2019/04/17 06:06:07;;;;;;;6.6;3.9;;;;;;;14.22;48.66113;941.9867;;;;
2019/04/17 06:12:06;;;;;;;6.1;3.6;;;;;;;13.96;48.40332;942.0969;;;;
2019/04/17 06:14:30;;;;;;;3.9;2.8;;;;;;;14.18;47.32227;942.0072;;;;
2019/04/17 06:19:27;;;;;;;6.4;3.4;;;;;;;13.04;50.66699;942.0907;;;;
2019/04/17 06:21:41;;;;;;;8.3;3.7;;;;;;;12.76;51.64355;942.0875;;;;
2019/04/17 06:29:35;;;;;;;9.4;3.9;;;;;;;11.97;54.57324;942.0859;;;;
2019/04/17 06:32:01;;;;;;;19;4.3;;;;;;;12.13;54.53613;942.063;;;;
2019/04/17 06:34:32;;;;;;;14.1;4.4;;;;;;;11.98;56.31738;942.0764;;;;
2019/04/17 06:36:57;;;;;;;16.6;4.5;;;;;;;12.29;54.4541;942.052;;;;
2019/04/17 06:39:40;;;;;;;7.4;4.1;;;;;;;12.01;54.52246;942.0991;;;;
2019/04/17 06:42:21;;;;;;;6.9;3.9;;;;;;;11.53;56.48633;942.0539;;;;
2019/04/17 06:44:48;;;;;;;6.5;3.8;;;;;;;11.72;55;942.0411;;;;
2019/04/17 06:50:17;;;;;;;10.1;4.2;;;;;;;12.28;54.07422;942.1206;;;;
2019/04/17 06:53:00;;;;;;;5.1;3.8;;;;;;;13.15;53.20605;942.1393;;;;
2019/04/17 06:55:46;;;;;;;8.9;3.9;;;;;;;13.49;50.31543;942.1323;;;;
2019/04/17 07:05:04;;;;;;;4.1;3.4;;;;;;;14.9;44.88574;942.0569;;;;
2019/04/17 07:10:12;;;;;;;8.6;3.2;;;;;;;14.16;47.49121;942.0864;;;;
2019/04/17 07:12:40;;;;;;;5;3.5;;;;;;;14.04;47.61816;942.0341;;;;
2019/04/17 07:15:36;;;;;;;4.4;3.1;;;;;;;14.93;47.0918;942.0071;;;;
2019/04/17 07:17:30;;;;;;;4.6;3.3;;;;;;;15.4;44.44043;942.0123;;;;
2019/04/17 07:20:19;;;;;;;11.7;4.1;;;;;;;15.43;44.75488;942.0398;;;;
2019/04/17 07:22:43;;;;;;;7.3;3.9;;;;;;;14.46;46.1543;942.0044;;;;
2019/04/17 07:25:07;;;;;;;7.4;4.7;;;;;;;14.72;47.03418;942.0463;;;;
2019/04/17 07:27:41;;;;;;;11.7;5.1;;;;;;;15.45;47.27539;942.0541;;;;
2019/04/17 07:30:27;;;;;;;8.6;5.3;;;;;;;16.4;46.10449;942.0452;;;;
2019/04/17 07:33:29;;;;;;;9.4;4.3;;;;;;;16.37;42.6875;942.0317;;;;
2019/04/17 07:35:24;;;;;;;6.1;4.5;;;;;;;16.14;43.02344;942.0826;;;;
2019/04/17 07:41:52;;;;;;;8.1;4.6;;;;;;;17.12;40.21094;942.0889;;;;
2019/04/17 07:46:57;;;;;;;4.7;3.6;;;;;;;18.81;36.4082;942.1203;;;;
2019/04/17 07:52:43;;;;;;;4.1;3.6;;;;;;;19.56;36.4707;942.1498;;;;
2019/04/17 07:55:04;;;;;;;5.6;3.5;;;;;;;18.95;36.9209;942.1505;;;;
2019/04/17 07:57:55;;;;;;;6.4;3.6;;;;;;;18.91;35.77637;942.1602;;;;
2019/04/17 08:00:21;;;;;;;5.2;3.7;;;;;;;19.24;36.17676;942.1671;;;;
2019/04/17 08:02:54;;;;;;;6;3.5;;;;;;;21.17;34.4043;942.1922;;;;
2019/04/17 08:05:18;;;;;;;6.5;4.2;;;;;;;19.72;35.76074;942.147;;;;
2019/04/17 08:07:44;;;;;;;7.3;4.8;;;;;;;19.37;35.94336;942.1252;;;;
2019/04/17 08:10:17;;;;;;;7.3;4.7;;;;;;;20.2;34.30664;942.1336;;;;
2019/04/17 08:12:46;;;;;;;8.2;6.3;;;;;;;20.61;32.9707;942.1731;;;;
2019/04/17 08:15:19;;;;;;;7.7;5.7;;;;;;;21.67;31.65625;942.1138;;;;
2019/04/17 08:17:47;;;;;;;10.4;5.3;;;;;;;23.33;29.16504;942.0839;;;;
2019/04/17 08:20:16;;;;;;;9.3;5.5;;;;;;;22.63;29.4707;942.0812;;;;
2019/04/17 08:22:41;;;;;;;10.5;6;;;;;;;21.99;32.72266;942.097;;;;
2019/04/17 08:25:06;;;;;;;12.9;6.1;;;;;;;22.34;31.07129;942.0934;;;;
2019/04/17 08:31:29;;;;;;;8.3;7;;;;;;;23.15;29.79883;942.0313;;;;
2019/04/17 08:34:03;;;;;;;10.3;9.1;;;;;;;23.06;29.99316;942.017;;;;
2019/04/17 08:36:27;;;;;;;12.6;11.1;;;;;;;23.49;29.01074;941.9886;;;;
2019/04/17 08:38:59;;;;;;;12;9.9;;;;;;;23.09;30.79395;941.9437;;;;
2019/04/17 08:41:51;;;;;;;11.9;9.3;;;;;;;23.41;29.31152;941.9471;;;;
2019/04/17 08:44:06;;;;;;;12.8;9.1;;;;;;;23.31;29.63379;941.9832;;;;
2019/04/17 08:46:35;;;;;;;12.1;9.5;;;;;;;22.49;30.88184;941.935;;;;
2019/04/17 08:49:13;;;;;;;11.3;8.4;;;;;;;22.41;31.28711;941.9711;;;;
2019/04/17 08:51:41;;;;;;;10.5;8.5;;;;;;;23.01;31.44629;941.9891;;;;
2019/04/17 08:54:14;;;;;;;10;9;;;;;;;22.22;31.61426;941.863;;;;
2019/04/17 08:56:59;;;;;;;9.8;8.8;;;;;;;22.86;31.13086;941.9233;;;;
2019/04/17 08:59:24;;;;;;;11.8;9;;;;;;;22.35;31.31738;941.9794;;;;
2019/04/17 09:01:58;;;;;;;11.9;8.7;;;;;;;22.57;31.79102;941.8805;;;;
2019/04/17 09:04:22;;;;;;;11.1;8.5;;;;;;;22.45;30.73828;941.9313;;;;
2019/04/17 09:07:02;;;;;;;10.8;9.4;;;;;;;21.37;34.47852;941.9972;;;;
2019/04/17 09:09:43;;;;;;;10.9;9.5;;;;;;;21.42;33.63965;941.9911;;;;
2019/04/17 09:12:09;;;;;;;11.1;9.1;;;;;;;22.13;32.65039;941.9753;;;;
2019/04/17 09:14:50;;;;;;;10.1;9;;;;;;;23.08;30.06543;941.9539;;;;
2019/04/17 09:20:08;;;;;;;11.1;9.6;;;;;;;21.31;33.37402;942.0012;;;;
2019/04/17 09:22:26;;;;;;;12.4;9.2;;;;;;;20.11;37.03027;941.973;;;;
2019/04/17 09:25:03;;;;;;;11.6;9.5;;;;;;;20.84;35.08008;942.0624;;;;
2019/04/17 09:27:33;;;;;;;10.7;9.2;;;;;;;21.72;34.45898;941.9641;;;;
2019/04/17 09:29:51;;;;;;;10.7;9;;;;;;;21.29;35.51367;941.9475;;;;
2019/04/17 09:32:18;;;;;;;11.8;9;;;;;;;21.74;34.66016;941.8531;;;;
2019/04/17 09:34:53;;;;;;;10.3;8.8;;;;;;;20.78;36.60645;941.9316;;;;
2019/04/17 09:37:18;;;;;;;10.7;9.6;;;;;;;21.97;34.50195;941.8486;;;;
2019/04/17 09:39:45;;;;;;;11.9;8.7;;;;;;;21.67;35.13477;941.8714;;;;
2019/04/17 09:42:18;;;;;;;10.8;8.7;;;;;;;22.03;31.70508;941.8845;;;;
2019/04/17 09:44:57;;;;;;;10.4;8.4;;;;;;;21.35;34.98145;941.8656;;;;
2019/04/17 09:47:37;;;;;;;11.9;9.2;;;;;;;21.43;34.50684;941.8906;;;;
2019/04/17 09:50:04;;;;;;;10.5;9.4;;;;;;;20.93;35.83594;941.7904;;;;
2019/04/17 09:52:37;;;;;;;11.8;9.7;;;;;;;20.52;36.74902;941.7708;;;;
2019/04/17 09:55:10;;;;;;;11.4;9.2;;;;;;;19.78;39.33496;941.7941;;;;
2019/04/17 09:57:39;;;;;;;10.8;8.6;;;;;;;20.1;38.53516;941.7889;;;;
2019/04/17 10:03:03;;;;;;;10.6;9.1;;;;;;;20.5;38.26563;941.7598;;;;
2019/04/17 10:08:01;;;;;;;11.9;9.8;;;;;;;20.4;38.12891;941.6943;;;;
2019/04/17 10:11:04;;;;;;;11.6;9.6;;;;;;;19.99;38.99219;941.6987;;;;
2019/04/17 10:12:47;;;;;;;10.8;9.5;;;;;;;21.13;38.36621;941.683;;;;
2019/04/17 10:15:12;;;;;;;11.3;9.4;;;;;;;20.47;37.78418;941.6004;;;;
2019/04/17 10:17:38;;;;;;;10.1;9;;;;;;;21.41;36.97461;941.5683;;;;
2019/04/17 10:20:16;;;;;;;11.3;9.7;;;;;;;21.82;36.06055;941.4797;;;;
2019/04/17 10:22:41;;;;;;;12;9.3;;;;;;;21.05;38.60645;941.4986;;;;
2019/04/17 10:25:06;;;;;;;12.5;9.6;;;;;;;21.01;37.77148;941.4565;;;;
2019/04/17 10:27:38;;;;;;;12.2;9.9;;;;;;;21.36;36.47949;941.3889;;;;
2019/04/17 10:30:02;;;;;;;13.4;9.3;;;;;;;21.77;36.66504;941.4559;;;;
2019/04/17 10:32:53;;;;;;;10.5;9.4;;;;;;;22.75;34.21094;941.4019;;;;
2019/04/17 10:35:18;;;;;;;12.3;9.2;;;;;;;24.03;30.75293;941.4311;;;;
2019/04/17 10:37:25;;;;;;;10.9;9.2;;;;;;;24.59;29.60156;941.4152;;;;
2019/04/17 10:41:07;;;;;;;10.9;9.2;;;;;;;23.97;31.53809;941.3734;;;;
2019/04/17 10:42:19;;;;;;;10.7;9.6;;;;;;;23.4;34.05957;941.3641;;;;
2019/04/17 10:51:10;;;;;;;10.8;9.6;;;;;;;22.55;34.25391;941.3771;;;;
2019/04/17 10:53:46;;;;;;;11.4;9.8;;;;;;;22.92;32.28516;941.2921;;;;
2019/04/17 10:56:19;;;;;;;11.1;9.4;;;;;;;23.5;31.99805;941.2101;;;;
2019/04/17 10:58:52;;;;;;;11.2;10;;;;;;;21.91;35.25879;941.3429;;;;
2019/04/17 11:01:10;;;;;;;11.9;10.4;;;;;;;21.91;35.04785;941.282;;;;
2019/04/17 11:03:54;;;;;;;11.3;10.1;;;;;;;21.34;38.05664;941.2803;;;;
2019/04/17 11:06:47;;;;;;;12.2;10;;;;;;;21.91;36.09082;941.264;;;;
2019/04/17 11:11:37;;;;;;;12.2;10;;;;;;;22.22;36.44531;941.188;;;;
2019/04/17 11:14:06;;;;;;;10.9;9.8;;;;;;;23.14;33.78223;941.1912;;;;
2019/04/17 11:16:37;;;;;;;11.6;9.6;;;;;;;23.52;33.42285;941.23;;;;
2019/04/17 11:19:25;;;;;;;11.1;9.9;;;;;;;23.4;34.64746;941.195;;;;
2019/04/17 11:21:47;;;;;;;11.4;9.3;;;;;;;24.72;31.0127;941.1397;;;;
2019/04/17 11:24:13;;;;;;;12.3;10.6;;;;;;;24.76;31.5459;941.2134;;;;
2019/04/17 11:26:44;;;;;;;12.1;10.2;;;;;;;24.79;30.2627;941.1908;;;;
2019/04/17 11:29:11;;;;;;;11.6;9.9;;;;;;;26.16;28.85352;941.1443;;;;
2019/04/17 11:31:53;;;;;;;13;10.1;;;;;;;25.87;28.8584;941.1753;;;;
2019/04/17 11:34:40;;;;;;;11.2;9.9;;;;;;;27.32;26.33105;941.1178;;;;
2019/04/17 11:37:05;;;;;;;12.4;9.8;;;;;;;24.83;30.89063;941.0681;;;;
2019/04/17 11:39:48;;;;;;;11.9;10.2;;;;;;;22.56;33.81934;941.0814;;;;
2019/04/17 11:42:29;;;;;;;10.7;9.6;;;;;;;23.72;32.03809;940.976;;;;
2019/04/17 11:44:51;;;;;;;12.4;9.8;;;;;;;24.77;32.06641;941.0196;;;;
2019/04/17 11:47:20;;;;;;;11.5;9.6;;;;;;;25.63;28.76074;941.0017;;;;
2019/04/17 11:50:04;;;;;;;10.4;9.3;;;;;;;25.32;30.12207;940.9519;;;;
2019/04/17 11:53:23;;;;;;;12.9;9.6;;;;;;;23.95;31.43164;941.0162;;;;
2019/04/17 11:55:03;;;;;;;11.6;9.5;;;;;;;23.33;33.77246;940.8797;;;;
2019/04/17 12:03:54;;;;;;;12.7;8.7;;;;;;;26.22;27.76953;940.9078;;;;
2019/04/17 12:04:25;;;;;;;11.4;9.2;;;;;;;24.61;31.25195;940.9659;;;;
2019/04/17 12:06:42;;;;;;;9.9;8.6;;;;;;;23.89;31.50879;940.96;;;;
2019/04/17 12:09:23;;;;;;;11.4;9.3;;;;;;;24.22;31.69629;940.8917;;;;
2019/04/17 12:11:36;;;;;;;13.2;9.2;;;;;;;23.96;31.74902;940.9201;;;;
2019/04/17 12:19:24;;;;;;;8.7;7.3;;;;;;;25.63;28.34668;940.8883;;;;
2019/04/17 12:24:10;;;;;;;10.2;8;;;;;;;24.63;30.6416;940.8365;;;;
2019/04/17 12:26:50;;;;;;;8.5;7.6;;;;;;;25.5;27.19238;940.8945;;;;
2019/04/17 12:29:02;;;;;;;8.7;7.8;;;;;;;25.16;28.78809;940.9025;;;;
2019/04/17 12:31:25;;;;;;;9.1;8;;;;;;;25.21;29.7832;940.7992;;;;
2019/04/17 12:34:13;;;;;;;9;7.8;;;;;;;24.64;31.47949;940.8563;;;;
2019/04/17 12:36:35;;;;;;;10;7.6;;;;;;;25.87;26.45898;940.8217;;;;
2019/04/17 12:39:14;;;;;;;9.7;8.7;;;;;;;25.67;27.73438;940.717;;;;
2019/04/17 12:41:40;;;;;;;9.5;7.8;;;;;;;25.8;27.8252;940.7506;;;;
2019/04/17 12:44:04;;;;;;;8.8;7.9;;;;;;;24.83;28;940.6989;;;;
2019/04/17 12:46:33;;;;;;;9.4;7.5;;;;;;;25.47;28.04102;940.7556;;;;
2019/04/17 12:48:58;;;;;;;8.7;7.4;;;;;;;24.84;28.47363;940.676;;;;
2019/04/17 12:54:18;;;;;;;8.1;7.3;;;;;;;24.35;29.18457;940.699;;;;
2019/04/17 12:56:49;;;;;;;9.8;7.2;;;;;;;24.38;30.72949;940.6736;;;;
2019/04/17 12:59:01;;;;;;;8.6;6.8;;;;;;;23.84;30.33984;940.6905;;;;
2019/04/17 13:04:32;;;;;;;8.4;6.8;;;;;;;22.86;32.29297;940.564;;;;
2019/04/17 13:12:03;;;;;;;7.5;6.1;;;;;;;22.82;31.11621;940.56;;;;
2019/04/17 13:14:43;;;;;;;9.5;6.1;;;;;;;22.91;30.34766;940.5305;;;;
2019/04/17 13:17:06;;;;;;;8.5;6.4;;;;;;;22.74;31.56738;940.6364;;;;
2019/04/17 13:19:31;;;;;;;7.6;6.3;;;;;;;22.24;32.29492;940.6021;;;;
2019/04/17 13:21:56;;;;;;;7.9;6;;;;;;;22.73;29.71289;940.5245;;;;
2019/04/17 13:24:30;;;;;;;7.5;5.8;;;;;;;22.82;28.42676;940.5131;;;;
2019/04/17 13:26:56;;;;;;;5.9;5.1;;;;;;;22.91;29.63086;940.5695;;;;
2019/04/17 13:29:37;;;;;;;6.5;5.4;;;;;;;23.17;28.60156;940.512;;;;
2019/04/17 13:32:36;;;;;;;7.1;5.8;;;;;;;22.42;31.19434;940.5067;;;;
2019/04/17 13:34:48;;;;;;;7.8;6;;;;;;;22.72;29.05371;940.4878;;;;
2019/04/17 13:37:45;;;;;;;8.8;5.8;;;;;;;22.65;30.58789;940.5273;;;;
2019/04/17 13:49:48;;;;;;;7;6;;;;;;;20.85;33.67773;940.4543;;;;
2019/04/17 13:54:54;;;;;;;9.6;6.5;;;;;;;21.34;31.09473;940.5016;;;;
2019/04/17 13:57:19;;;;;;;7.7;6.5;;;;;;;20.76;31.67285;940.4144;;;;
2019/04/17 13:59:38;;;;;;;8.2;6;;;;;;;21.45;30.15332;940.3499;;;;
2019/04/17 14:02:06;;;;;;;8;6.1;;;;;;;22.01;30.42676;940.394;;;;
2019/04/17 14:05:01;;;;;;;7.2;6.5;;;;;;;21.84;29.03223;940.3613;;;;
2019/04/17 14:07:35;;;;;;;9.4;5.8;;;;;;;21.79;29.36816;940.4162;;;;
2019/04/17 14:10:04;;;;;;;9.7;6.1;;;;;;;21.63;29.63867;940.3862;;;;
2019/04/17 14:12:35;;;;;;;6.4;5.7;;;;;;;21.82;28.9375;940.399;;;;
2019/04/17 14:16:28;;;;;;;10.9;5.8;;;;;;;21.6;29.39063;940.368;;;;
2019/04/17 14:20:20;;;;;;;8.7;6.2;;;;;;;21.55;29.99707;940.3274;;;;
2019/04/17 14:23:11;;;;;;;9.6;6.2;;;;;;;20.7;32.40527;940.4006;;;;
2019/04/17 14:28:05;;;;;;;10.2;5.7;;;;;;;20.1;33.90234;940.3787;;;;
2019/04/17 14:30:40;;;;;;;8.7;5.9;;;;;;;20.61;32.26953;940.3307;;;;
2019/04/17 14:32:52;;;;;;;8.4;6;;;;;;;20.48;32.69238;940.304;;;;
2019/04/17 14:35:21;;;;;;;9.9;6.9;;;;;;;20.42;32.7002;940.3549;;;;
2019/04/17 14:37:48;;;;;;;9.1;6.4;;;;;;;20.47;32.16602;940.3488;;;;
2019/04/17 14:40:25;;;;;;;7.3;5.8;;;;;;;20.85;31.91309;940.3119;;;;
2019/04/17 14:42:52;;;;;;;6.9;5.7;;;;;;;20.68;31.99414;940.309;;;;
2019/04/17 14:45:29;;;;;;;6.9;5.8;;;;;;;21.13;31.81641;940.3014;;;;
2019/04/17 14:48:48;;;;;;;9;6.5;;;;;;;20.67;30.93066;940.1934;;;;
2019/04/17 14:50:34;;;;;;;9.9;6.4;;;;;;;20.46;31.46484;940.2642;;;;
2019/04/17 14:57:59;;;;;;;7.3;6.2;;;;;;;19.46;31.9873;940.1886;;;;
2019/04/17 15:06:16;;;;;;;8.2;6.1;;;;;;;19.88;31.69141;940.2042;;;;
2019/04/17 15:08:19;;;;;;;11.3;6.4;;;;;;;19.57;32.73047;940.213;;;;
2019/04/17 15:12:59;;;;;;;6.3;5.7;;;;;;;19.64;31.23145;940.2612;;;;
2019/04/17 15:15:27;;;;;;;10.1;5.6;;;;;;;19.59;31.55469;940.2408;;;;
2019/04/17 15:17:45;;;;;;;9.1;5.9;;;;;;;19.61;32.44141;940.2598;;;;
2019/04/17 15:20:14;;;;;;;8.7;5.6;;;;;;;19.66;33.28516;940.1976;;;;
2019/04/17 15:22:48;;;;;;;6.5;5.8;;;;;;;19.3;34.08496;940.2296;;;;
2019/04/17 15:25:20;;;;;;;8.9;6.3;;;;;;;18.87;33.30664;940.1546;;;;
2019/04/17 15:27:48;;;;;;;8.7;6.7;;;;;;;18.62;35.69629;940.2579;;;;
2019/04/17 15:30:23;;;;;;;8.7;6.2;;;;;;;18.39;33.17773;940.1833;;;;
2019/04/17 15:33:02;;;;;;;7.9;6.4;;;;;;;18.54;33.52539;940.1906;;;;
2019/04/17 15:35:31;;;;;;;8.4;6.5;;;;;;;18.49;35.11523;940.1495;;;;
2019/04/17 15:38:07;;;;;;;9.8;6.9;;;;;;;18.02;35.07813;940.219;;;;
2019/04/17 15:40:36;;;;;;;9.1;6.3;;;;;;;18.11;33.7832;940.2296;;;;
2019/04/17 15:43:05;;;;;;;8.9;6.6;;;;;;;17.99;34.56445;940.1926;;;;
2019/04/17 15:45:38;;;;;;;9.7;6.6;;;;;;;18.18;33.19629;940.2252;;;;
2019/04/17 15:48:05;;;;;;;8.7;6.1;;;;;;;18.25;33.45801;940.2558;;;;
2019/04/17 15:50:30;;;;;;;10.2;6.6;;;;;;;18.45;32.75195;940.2534;;;;
2019/04/17 15:53:12;;;;;;;7.7;6.3;;;;;;;18.53;32.81641;940.2263;;;;
2019/04/17 15:55:39;;;;;;;9.9;6.4;;;;;;;18.5;32.83691;940.2519;;;;
2019/04/17 15:58:08;;;;;;;8.6;6.3;;;;;;;18.35;32.4541;940.2566;;;;
2019/04/17 16:01:20;;;;;;;8.1;6.1;;;;;;;18.55;33.00391;940.2621;;;;
2019/04/17 16:03:06;;;;;;;10.8;6.3;;;;;;;18.69;33.35156;940.2675;;;;
2019/04/17 16:05:30;;;;;;;7.8;6.2;;;;;;;18.48;33.61426;940.2835;;;;
2019/04/17 16:07:59;;;;;;;12.1;6.2;;;;;;;18.46;32.93848;940.2953;;;;
2019/04/17 16:10:42;;;;;;;8.9;5.9;;;;;;;18.3;32.41504;940.3792;;;;
2019/04/17 16:13:17;;;;;;;6.7;5.7;;;;;;;18.52;32.08203;940.3135;;;;
2019/04/17 16:15:46;;;;;;;7.6;6.2;;;;;;;18.48;31.6377;940.3183;;;;
2019/04/17 16:18:10;;;;;;;9.1;6.2;;;;;;;18.66;32.29004;940.3011;;;;
2019/04/17 16:20:41;;;;;;;9.2;6.3;;;;;;;18.62;31.72949;940.3184;;;;
2019/04/17 16:23:04;;;;;;;10.1;6;;;;;;;18.54;31.06055;940.3147;;;;
2019/04/17 16:25:26;;;;;;;7.7;5.8;;;;;;;18.22;30.91016;940.3544;;;;
2019/04/17 16:27:53;;;;;;;7.9;5.8;;;;;;;18.34;31.2207;940.3398;;;;
2019/04/17 16:30:33;;;;;;;7.3;5.9;;;;;;;18.26;30.43652;940.4136;;;;
2019/04/17 16:32:56;;;;;;;8.7;5.5;;;;;;;18.19;31.30371;940.3959;;;;
2019/04/17 16:35:27;;;;;;;10.9;5.8;;;;;;;18.17;30.44238;940.3551;;;;
2019/04/17 16:41:03;;;;;;;7.5;5.4;;;;;;;18.08;31.13184;940.397;;;;
2019/04/17 16:47:09;;;;;;;8.3;5.6;;;;;;;17.72;30.83984;940.4228;;;;
2019/04/17 16:48:57;;;;;;;9.3;5.8;;;;;;;17.45;31.85449;940.4196;;;;
2019/04/17 16:51:25;;;;;;;7;5.6;;;;;;;17.57;31.6416;940.4356;;;;
2019/04/17 16:53:47;;;;;;;8.8;5.8;;;;;;;17.44;31.19141;940.4728;;;;
2019/04/17 16:56:15;;;;;;;7.5;5.9;;;;;;;17.4;31.32813;940.486;;;;
2019/04/17 16:58:41;;;;;;;9.3;5.9;;;;;;;17.25;31.3291;940.5209;;;;
2019/04/17 17:01:14;;;;;;;8.7;5.6;;;;;;;17.36;31.31348;940.5203;;;;
2019/04/17 17:03:39;;;;;;;10.8;5.9;;;;;;;17.42;31.29492;940.548;;;;
2019/04/17 17:06:14;;;;;;;8.6;5.7;;;;;;;17.38;31.65234;940.5394;;;;
2019/04/17 17:08:54;;;;;;;9.1;5.6;;;;;;;17.14;31.58789;940.5639;;;;
2019/04/17 17:11:22;;;;;;;9.1;6.5;;;;;;;16.75;31.17773;940.5444;;;;
2019/04/17 17:13:59;;;;;;;9.4;6.4;;;;;;;16.54;31.52148;940.5765;;;;
2019/04/17 17:16:35;;;;;;;10.9;6.9;;;;;;;16.06;32.40039;940.6347;;;;
2019/04/17 17:18:55;;;;;;;10.4;6;;;;;;;16.36;32.0752;940.6269;;;;
2019/04/17 17:21:23;;;;;;;8.5;6.2;;;;;;;16.42;32.46191;940.6973;;;;
2019/04/17 17:23:52;;;;;;;10.1;6.3;;;;;;;16.41;32.43848;940.6248;;;;
2019/04/17 17:26:24;;;;;;;7.8;5.8;;;;;;;15.88;33.49707;940.7619;;;;
2019/04/17 17:29:13;;;;;;;12;5.4;;;;;;;15.63;35.40625;940.7344;;;;
2019/04/17 17:31:42;;;;;;;8.1;6.1;;;;;;;15.9;34.16895;940.7681;;;;
2019/04/17 17:37:42;;;;;;;11.2;6.4;;;;;;;15.51;34.83105;940.8323;;;;
2019/04/17 17:40:11;;;;;;;10.3;6.1;;;;;;;15.87;34.97559;940.7628;;;;
2019/04/17 17:42:38;;;;;;;8.7;6;;;;;;;16.15;35.125;940.8606;;;;